createdAt,value
2023-01-13T00:00:58.746Z,100.00
2023-01-13T00:03:25.986Z,100.00
2023-01-13T00:05:53.750Z,100.00
2023-01-13T00:08:21.100Z,100.00
2023-01-13T00:10:51.010Z,100.00
2023-01-13T00:13:26.395Z,100.00
2023-01-13T00:15:57.542Z,100.00
2023-01-13T00:18:24.973Z,100.00
2023-01-13T00:21:00.477Z,100.00
2023-01-13T00:23:31.700Z,100.00
2023-01-13T00:25:58.991Z,100.00
2023-01-13T00:28:26.279Z,100.00
2023-01-13T00:30:53.083Z,100.00
2023-01-13T00:33:21.175Z,100.00
2023-01-13T00:35:58.083Z,100.00
2023-01-13T00:38:25.318Z,100.00
2023-01-13T00:40:56.591Z,100.00
2023-01-13T00:43:23.630Z,100.00
2023-01-13T00:45:53.401Z,100.00
2023-01-13T00:48:20.665Z,100.00
2023-01-13T00:50:47.538Z,100.00
2023-01-13T00:53:14.823Z,100.00
2023-01-13T00:55:42.056Z,100.00
2023-01-13T00:58:08.719Z,98.67
2023-01-13T01:00:36.248Z,99.57
2023-01-13T01:03:03.251Z,99.49
2023-01-13T01:05:30.018Z,99.54
2023-01-13T01:07:56.712Z,97.97
2023-01-13T01:10:23.357Z,99.25
2023-01-13T01:12:50.938Z,97.74
2023-01-13T01:15:17.701Z,97.26
2023-01-13T01:17:44.950Z,96.38
2023-01-13T01:20:12.306Z,95.41
2023-01-13T01:22:39.011Z,95.95
2023-01-13T01:25:06.366Z,95.63
2023-01-13T01:27:33.098Z,94.21
2023-01-13T01:29:59.914Z,94.42
2023-01-13T01:32:26.463Z,94.78
2023-01-13T01:34:53.780Z,93.41
2023-01-13T01:37:20.410Z,93.71
2023-01-13T01:39:48.528Z,93.61
2023-01-13T01:42:34.999Z,93.41
2023-01-13T01:45:10.879Z,92.53
2023-01-13T01:47:38.053Z,93.17
2023-01-13T01:50:05.600Z,92.79
2023-01-13T01:52:39.325Z,92.94
2023-01-13T01:55:10.244Z,92.48
2023-01-13T01:58:09.672Z,92.37
2023-01-13T02:00:37.010Z,91.30
2023-01-13T02:03:06.617Z,91.82
2023-01-13T02:05:39.012Z,93.12
2023-01-13T02:08:08.510Z,93.91
2023-01-13T02:10:37.955Z,93.84
2023-01-13T02:13:06.976Z,93.00
2023-01-13T02:15:40.175Z,92.06
2023-01-13T02:18:22.402Z,92.63
2023-01-13T02:20:59.925Z,91.68
2023-01-13T02:23:46.578Z,92.45
2023-01-13T02:26:32.539Z,90.98
2023-01-13T02:29:27.666Z,90.85
2023-01-13T02:31:58.212Z,89.47
2023-01-13T02:34:44.755Z,89.15
2023-01-13T02:37:25.572Z,88.30
2023-01-13T02:40:01.776Z,87.98
2023-01-13T02:42:51.039Z,87.98
2023-01-13T02:45:22.548Z,87.33
2023-01-13T02:47:52.883Z,87.42
2023-01-13T02:50:23.100Z,87.53
2023-01-13T02:52:56.191Z,86.49
2023-01-13T02:55:31.550Z,86.60
2023-01-13T02:57:59.806Z,86.07
2023-01-13T03:00:28.202Z,85.71
2023-01-13T03:02:55.030Z,84.98
2023-01-13T03:05:22.641Z,85.58
2023-01-13T03:07:49.672Z,85.01
2023-01-13T03:10:24.482Z,86.11
2023-01-13T03:12:59.663Z,85.36
2023-01-13T03:15:42.933Z,85.95
2023-01-13T03:18:17.052Z,85.23
2023-01-13T03:20:48.726Z,84.41
2023-01-13T03:23:22.107Z,85.66
2023-01-13T03:26:09.148Z,84.22
2023-01-13T03:28:40.843Z,85.00
2023-01-13T03:31:11.901Z,84.89
2023-01-13T03:33:51.483Z,85.34
2023-01-13T03:36:21.312Z,85.18
2023-01-13T03:38:52.750Z,85.17
2023-01-13T03:41:24.927Z,85.23
2023-01-13T03:44:21.590Z,84.87
2023-01-13T03:47:24.271Z,84.24
2023-01-13T03:49:54.171Z,84.16
2023-01-13T03:52:30.948Z,83.59
2023-01-13T03:55:01.931Z,83.31
2023-01-13T03:57:31.446Z,83.35
2023-01-13T04:00:00.041Z,83.39
2023-01-13T04:02:26.746Z,83.24
2023-01-13T04:04:53.759Z,84.74
2023-01-13T04:07:20.760Z,84.49
2023-01-13T04:09:57.855Z,83.73
2023-01-13T04:12:26.318Z,84.14
2023-01-13T04:14:53.821Z,83.98
2023-01-13T04:17:20.873Z,83.85
2023-01-13T04:19:47.765Z,85.45
2023-01-13T04:22:14.842Z,84.47
2023-01-13T04:24:41.450Z,84.45
2023-01-13T04:27:08.479Z,84.45
2023-01-13T04:29:35.686Z,84.42
2023-01-13T04:32:02.685Z,84.57
2023-01-13T04:34:30.117Z,84.03
2023-01-13T04:36:57.032Z,84.26
2023-01-13T04:39:23.944Z,84.24
2023-01-13T04:41:59.847Z,83.49
2023-01-13T04:44:27.404Z,83.85
2023-01-13T04:46:54.345Z,84.62
2023-01-13T04:49:21.007Z,84.18
2023-01-13T04:51:47.855Z,83.78
2023-01-13T04:54:14.884Z,84.39
2023-01-13T04:56:42.000Z,84.26
2023-01-13T04:59:12.433Z,84.12
2023-01-13T05:01:39.573Z,84.10
2023-01-13T05:04:07.321Z,84.30
2023-01-13T05:06:34.409Z,85.01
2023-01-13T05:09:01.411Z,85.09
2023-01-13T05:11:46.652Z,84.35
2023-01-13T05:14:32.380Z,84.65
2023-01-13T05:17:02.022Z,84.91
2023-01-13T05:19:35.443Z,84.69
2023-01-13T05:22:21.355Z,84.85
2023-01-13T05:25:06.622Z,84.63
2023-01-13T05:27:34.133Z,84.55
2023-01-13T05:30:01.172Z,84.29
2023-01-13T05:32:28.063Z,83.79
2023-01-13T05:34:55.954Z,83.81
2023-01-13T05:37:23.816Z,83.17
2023-01-13T05:40:10.773Z,84.46
2023-01-13T05:42:57.314Z,85.00
2023-01-13T05:45:24.218Z,83.99
2023-01-13T05:47:51.138Z,84.86
2023-01-13T05:50:18.706Z,84.18
2023-01-13T05:52:45.755Z,84.23
2023-01-13T05:55:12.495Z,84.26
2023-01-13T05:57:39.519Z,84.56
2023-01-13T06:00:06.867Z,85.29
2023-01-13T06:02:33.858Z,84.66
2023-01-13T06:05:00.600Z,85.14
2023-01-13T06:07:27.472Z,85.51
2023-01-13T06:09:54.309Z,85.28
2023-01-13T06:12:21.633Z,85.21
2023-01-13T06:14:48.267Z,85.20
2023-01-13T06:17:16.393Z,85.06
2023-01-13T06:19:43.347Z,85.26
2023-01-13T06:22:13.521Z,85.39
2023-01-13T06:24:41.011Z,86.04
2023-01-13T06:27:08.328Z,85.89
2023-01-13T06:29:35.456Z,85.39
2023-01-13T06:32:03.763Z,84.95
2023-01-13T06:34:30.638Z,84.98
2023-01-13T06:36:57.581Z,85.45
2023-01-13T06:39:27.477Z,85.48
2023-01-13T06:42:13.446Z,85.87
2023-01-13T06:44:40.210Z,85.11
2023-01-13T06:47:07.814Z,84.60
2023-01-13T06:49:34.829Z,84.48
2023-01-13T06:52:01.629Z,85.97
2023-01-13T06:54:28.125Z,84.70
2023-01-13T06:56:55.371Z,84.05
2023-01-13T06:59:22.740Z,84.03
2023-01-13T07:01:49.723Z,83.15
2023-01-13T07:04:16.619Z,83.07
2023-01-13T07:06:43.368Z,82.98
2023-01-13T07:09:10.710Z,83.68
2023-01-13T07:11:37.296Z,83.53
2023-01-13T07:14:22.595Z,82.55
2023-01-13T07:16:49.684Z,82.46
2023-01-13T07:19:23.151Z,83.42
2023-01-13T07:21:51.720Z,83.19
2023-01-13T07:24:19.441Z,83.94
2023-01-13T07:26:46.814Z,84.04
2023-01-13T07:29:14.055Z,83.32
2023-01-13T07:31:41.032Z,83.06
2023-01-13T07:34:07.775Z,83.18
2023-01-13T07:36:34.878Z,82.44
2023-01-13T07:39:01.962Z,82.38
2023-01-13T07:41:47.275Z,81.26
2023-01-13T07:44:14.137Z,81.38
2023-01-13T07:46:41.842Z,80.69
2023-01-13T07:49:09.151Z,80.11
2023-01-13T07:51:39.342Z,80.57
2023-01-13T07:54:06.083Z,80.81
2023-01-13T07:56:33.241Z,79.46
2023-01-13T07:59:00.301Z,78.78
2023-01-13T08:01:29.777Z,78.99
2023-01-13T08:03:57.690Z,78.58
2023-01-13T08:06:25.662Z,78.07
2023-01-13T08:08:53.637Z,78.19
2023-01-13T08:11:23.398Z,77.83
2023-01-13T08:13:50.332Z,78.56
2023-01-13T08:16:17.719Z,78.77
2023-01-13T08:18:44.773Z,77.97
2023-01-13T08:21:14.922Z,78.14
2023-01-13T08:23:42.159Z,78.25
2023-01-13T08:26:10.475Z,78.80
2023-01-13T08:28:37.768Z,78.09
2023-01-13T08:31:05.740Z,78.22
2023-01-13T08:33:32.513Z,77.39
2023-01-13T08:36:02.741Z,77.78
2023-01-13T08:38:29.459Z,77.67
2023-01-13T08:40:56.349Z,78.23
2023-01-13T08:43:23.232Z,77.92
2023-01-13T08:45:57.334Z,77.83
2023-01-13T08:48:24.404Z,78.25
2023-01-13T08:50:51.260Z,78.54
2023-01-13T08:53:18.330Z,77.86
2023-01-13T08:55:45.074Z,78.98
2023-01-13T08:58:15.834Z,78.37
2023-01-13T09:00:43.632Z,78.23
2023-01-13T09:03:10.487Z,79.05
2023-01-13T09:05:37.058Z,79.10
2023-01-13T09:08:04.087Z,79.27
2023-01-13T09:10:31.806Z,79.91
2023-01-13T09:13:14.172Z,79.25
2023-01-13T09:15:42.266Z,78.85
2023-01-13T09:18:09.084Z,79.70
2023-01-13T09:20:36.270Z,80.34
2023-01-13T09:23:04.065Z,79.54
2023-01-13T09:25:31.108Z,80.17
2023-01-13T09:27:58.030Z,79.78
2023-01-13T09:30:25.167Z,80.04
2023-01-13T09:33:12.277Z,79.78
2023-01-13T09:35:38.972Z,79.54
2023-01-13T09:38:06.880Z,80.11
2023-01-13T09:40:33.810Z,80.87
2023-01-13T09:43:39.496Z,79.75
2023-01-13T09:46:39.963Z,80.61
2023-01-13T09:49:11.194Z,79.81
2023-01-13T09:51:41.693Z,79.88
2023-01-13T09:54:13.688Z,79.99
2023-01-13T09:56:40.477Z,79.95
2023-01-13T09:59:10.516Z,79.16
2023-01-13T10:01:43.637Z,79.15
2023-01-13T10:04:12.863Z,78.55
2023-01-13T10:06:43.436Z,77.53
2023-01-13T10:09:18.329Z,77.05
2023-01-13T10:12:05.770Z,77.89
2023-01-13T10:14:32.587Z,76.93
2023-01-13T10:17:02.601Z,77.36
2023-01-13T10:19:37.988Z,76.53
2023-01-13T10:22:23.515Z,76.06
2023-01-13T10:24:59.666Z,76.47
2023-01-13T10:27:37.000Z,75.73
2023-01-13T10:30:18.341Z,75.36
2023-01-13T10:32:55.750Z,75.58
2023-01-13T10:35:41.605Z,75.32
2023-01-13T10:38:16.034Z,75.19
2023-01-13T10:40:47.835Z,74.42
2023-01-13T10:43:14.553Z,73.66
2023-01-13T10:45:41.375Z,74.16
2023-01-13T10:48:13.980Z,73.69
2023-01-13T10:50:40.597Z,72.83
2023-01-13T10:53:17.873Z,72.49
2023-01-13T10:55:57.537Z,72.76
2023-01-13T10:58:25.140Z,72.31
2023-01-13T11:00:59.492Z,72.57
2023-01-13T11:03:28.086Z,72.86
2023-01-13T11:05:56.656Z,72.53
2023-01-13T11:08:25.286Z,72.68
2023-01-13T11:10:54.026Z,72.98
2023-01-13T11:13:31.919Z,72.85
2023-01-13T11:16:05.429Z,74.76
2023-01-13T11:18:34.965Z,77.87
2023-01-13T11:21:04.953Z,79.32
2023-01-13T11:23:35.483Z,79.21
2023-01-13T11:26:06.738Z,79.41
2023-01-13T11:28:33.645Z,79.86
2023-01-13T11:31:21.263Z,78.88
2023-01-13T11:33:55.498Z,78.24
2023-01-13T11:36:24.939Z,76.37
2023-01-13T11:39:02.890Z,76.62
2023-01-13T11:41:44.170Z,75.30
2023-01-13T11:44:14.215Z,76.24
2023-01-13T11:46:41.283Z,78.46
2023-01-13T11:49:12.019Z,77.21
2023-01-13T11:51:43.307Z,77.79
2023-01-13T11:54:13.266Z,78.73
2023-01-13T11:56:58.387Z,79.13
2023-01-13T11:59:31.208Z,80.77
2023-01-13T12:02:16.100Z,80.82
2023-01-13T12:05:02.707Z,82.42
2023-01-13T12:07:47.854Z,82.64
2023-01-13T12:10:26.162Z,84.90
2023-01-13T12:13:01.700Z,86.43
2023-01-13T12:15:41.562Z,87.38
2023-01-13T12:18:14.151Z,88.04
2023-01-13T12:20:41.602Z,87.46
2023-01-13T12:23:21.294Z,87.25
2023-01-13T12:25:53.426Z,86.45
2023-01-13T12:28:23.757Z,83.96
2023-01-13T12:31:02.604Z,83.55
2023-01-13T12:33:32.622Z,83.37
2023-01-13T12:36:06.892Z,83.86
2023-01-13T12:38:34.437Z,83.93
2023-01-13T12:41:07.643Z,84.67
2023-01-13T12:43:55.368Z,84.40
2023-01-13T12:46:22.272Z,83.82
2023-01-13T12:48:59.363Z,84.07
2023-01-13T12:51:33.262Z,84.28
2023-01-13T12:54:05.378Z,84.90
2023-01-13T12:56:40.268Z,84.96
2023-01-13T12:59:19.356Z,85.60
2023-01-13T13:01:47.184Z,85.13
2023-01-13T13:04:17.782Z,85.21
2023-01-13T13:07:04.812Z,84.40
2023-01-13T13:09:34.894Z,84.68
2023-01-13T13:12:41.051Z,84.11
2023-01-13T13:15:22.016Z,84.25
2023-01-13T13:18:08.733Z,84.20
2023-01-13T13:20:54.226Z,83.63
2023-01-13T13:23:40.215Z,82.87
2023-01-13T13:26:21.075Z,83.39
2023-01-13T13:28:51.032Z,82.36
2023-01-13T13:31:20.977Z,82.49
2023-01-13T13:33:55.409Z,82.06
2023-01-13T13:36:36.135Z,82.25
2023-01-13T13:39:29.023Z,82.67
2023-01-13T13:42:19.914Z,82.81
2023-01-13T13:45:06.762Z,82.41
2023-01-13T13:47:38.107Z,82.01
2023-01-13T13:50:06.837Z,83.01
2023-01-13T13:52:38.125Z,82.40
2023-01-13T13:55:20.532Z,82.60
2023-01-13T13:57:51.666Z,84.13
2023-01-13T14:00:29.570Z,86.32
2023-01-13T14:02:58.506Z,89.16
2023-01-13T14:05:30.049Z,91.38
2023-01-13T14:07:59.843Z,92.48
2023-01-13T14:10:33.965Z,92.09
2023-01-13T14:13:03.033Z,92.23
2023-01-13T14:15:31.496Z,92.57
2023-01-13T14:18:00.454Z,92.29
2023-01-13T14:20:28.759Z,92.13
2023-01-13T14:23:01.385Z,93.09
2023-01-13T14:25:28.737Z,92.16
2023-01-13T14:27:56.575Z,91.56
2023-01-13T14:30:24.477Z,92.75
2023-01-13T14:32:51.551Z,92.31
2023-01-13T14:35:18.240Z,93.58
2023-01-13T14:37:50.423Z,93.63
2023-01-13T14:40:44.728Z,93.60
2023-01-13T14:43:16.218Z,92.98
2023-01-13T14:45:58.393Z,93.37
2023-01-13T14:48:33.139Z,93.48
2023-01-13T14:51:00.686Z,94.23
2023-01-13T14:53:29.250Z,94.22
2023-01-13T14:55:56.215Z,93.07
2023-01-13T14:58:24.415Z,93.72
2023-01-13T15:00:51.994Z,93.69
2023-01-13T15:03:19.967Z,92.92
2023-01-13T15:05:48.223Z,93.50
2023-01-13T15:08:14.973Z,93.00
2023-01-13T15:10:46.800Z,91.52
2023-01-13T15:13:23.941Z,92.04
2023-01-13T15:15:55.509Z,90.00
2023-01-13T15:18:22.893Z,88.83
2023-01-13T15:20:52.939Z,87.42
2023-01-13T15:23:22.011Z,85.75
2023-01-13T15:25:48.718Z,86.26
2023-01-13T15:28:23.314Z,86.01
2023-01-13T15:30:51.549Z,85.64
2023-01-13T15:33:18.730Z,84.10
2023-01-13T15:35:46.935Z,85.05
2023-01-13T15:38:15.106Z,83.51
2023-01-13T15:40:43.378Z,83.83
2023-01-13T15:43:31.697Z,84.62
2023-01-13T15:46:16.744Z,84.50
2023-01-13T15:48:43.431Z,82.80
2023-01-13T15:51:13.794Z,83.63
2023-01-13T15:53:40.950Z,82.82
2023-01-13T15:56:12.551Z,83.46
2023-01-13T15:58:39.549Z,84.62
2023-01-13T16:01:06.496Z,84.46
2023-01-13T16:03:34.172Z,85.37
2023-01-13T16:06:01.226Z,86.25
2023-01-13T16:08:28.053Z,85.75
2023-01-13T16:10:54.928Z,83.92
2023-01-13T16:13:21.824Z,83.70
2023-01-13T16:15:49.585Z,84.25
2023-01-13T16:18:21.343Z,83.72
2023-01-13T16:20:52.793Z,83.69
2023-01-13T16:23:21.224Z,83.35
2023-01-13T16:25:49.360Z,82.79
2023-01-13T16:28:20.555Z,82.75
2023-01-13T16:30:47.568Z,82.42
2023-01-13T16:33:14.379Z,82.39
2023-01-13T16:36:08.968Z,82.44
2023-01-13T16:38:27.831Z,81.70
2023-01-13T16:40:56.791Z,82.06
2023-01-13T16:43:23.350Z,81.43
2023-01-13T16:45:50.567Z,81.44
2023-01-13T16:48:19.614Z,81.07
2023-01-13T16:50:46.759Z,80.61
2023-01-13T16:53:13.768Z,81.19
2023-01-13T16:55:41.862Z,81.15
2023-01-13T16:58:27.085Z,80.88
2023-01-13T17:00:53.709Z,81.46
2023-01-13T17:03:20.484Z,81.16
2023-01-13T17:05:47.711Z,81.18
2023-01-13T17:08:18.929Z,82.23
2023-01-13T17:10:46.677Z,84.68
2023-01-13T17:13:17.061Z,86.33
2023-01-13T17:15:45.101Z,86.99
2023-01-13T17:18:13.286Z,87.62
2023-01-13T17:20:40.460Z,87.51
2023-01-13T17:23:07.376Z,88.66
2023-01-13T17:25:34.046Z,87.53
2023-01-13T17:28:01.203Z,88.40
2023-01-13T17:30:28.211Z,88.36
2023-01-13T17:32:55.162Z,87.96
2023-01-13T17:35:24.770Z,87.30
2023-01-13T17:37:52.500Z,85.70
2023-01-13T17:40:19.835Z,85.98
2023-01-13T17:42:46.685Z,85.04
2023-01-13T17:45:13.330Z,83.93
2023-01-13T17:47:40.381Z,85.21
2023-01-13T17:50:07.386Z,84.96
2023-01-13T17:52:34.581Z,85.45
2023-01-13T17:55:01.308Z,85.11
2023-01-13T17:57:28.469Z,84.51
2023-01-13T17:59:55.147Z,84.46
2023-01-13T18:02:21.973Z,84.57
2023-01-13T18:04:49.180Z,83.57
2023-01-13T18:07:15.889Z,84.29
2023-01-13T18:09:42.774Z,85.13
2023-01-13T18:12:10.632Z,84.64
2023-01-13T18:14:37.273Z,85.05
2023-01-13T18:17:04.344Z,84.35
2023-01-13T18:19:50.127Z,85.46
2023-01-13T18:22:35.564Z,84.74
2023-01-13T18:25:22.127Z,84.57
2023-01-13T18:27:49.486Z,84.49
2023-01-13T18:30:16.296Z,83.66
2023-01-13T18:32:43.166Z,83.97
2023-01-13T18:35:10.721Z,84.23
2023-01-13T18:37:39.981Z,83.06
2023-01-13T18:40:07.909Z,83.55
2023-01-13T18:42:58.771Z,83.93
2023-01-13T18:45:27.497Z,83.24
2023-01-13T18:47:55.346Z,83.00
2023-01-13T18:50:23.071Z,81.67
2023-01-13T18:52:50.333Z,82.04
2023-01-13T18:55:16.949Z,81.73
2023-01-13T18:57:43.606Z,80.96
2023-01-13T19:00:12.449Z,80.40
2023-01-13T19:02:39.822Z,80.48
2023-01-13T19:05:07.035Z,80.95
2023-01-13T19:07:35.743Z,80.67
2023-01-13T19:10:04.269Z,80.09
2023-01-13T19:12:31.179Z,80.41
2023-01-13T19:14:58.461Z,80.47
2023-01-13T19:17:26.447Z,80.10
2023-01-13T19:19:55.538Z,79.47
2023-01-13T19:22:28.672Z,79.53
2023-01-13T19:24:56.139Z,79.73
2023-01-13T19:27:23.340Z,78.45
2023-01-13T19:29:52.353Z,78.99
2023-01-13T19:32:21.995Z,78.58
2023-01-13T19:34:51.163Z,77.75
2023-01-13T19:37:18.682Z,78.38
2023-01-13T19:39:45.461Z,77.46
2023-01-13T19:42:31.538Z,77.31
2023-01-13T19:45:16.965Z,77.23
2023-01-13T19:47:45.591Z,77.71
2023-01-13T19:50:13.482Z,76.95
2023-01-13T19:52:41.337Z,77.70
2023-01-13T19:55:08.284Z,77.81
2023-01-13T19:57:35.268Z,77.28
2023-01-13T20:00:03.415Z,77.72
2023-01-13T20:02:32.432Z,77.99
2023-01-13T20:05:00.137Z,77.89
2023-01-13T20:07:28.111Z,77.78
2023-01-13T20:09:58.098Z,77.77
2023-01-13T20:12:26.019Z,77.44
2023-01-13T20:14:53.193Z,77.82
2023-01-13T20:17:21.332Z,77.98
2023-01-13T20:19:48.168Z,77.14
2023-01-13T20:22:15.082Z,78.10
2023-01-13T20:24:41.860Z,77.50
2023-01-13T20:27:09.202Z,77.88
2023-01-13T20:29:35.989Z,78.73
2023-01-13T20:32:03.169Z,79.13
2023-01-13T20:34:30.280Z,78.98
2023-01-13T20:36:57.287Z,79.29
2023-01-13T20:39:26.513Z,79.09
2023-01-13T20:42:12.537Z,79.34
2023-01-13T20:44:40.134Z,79.62
2023-01-13T20:47:07.112Z,80.56
2023-01-13T20:49:36.371Z,79.85
2023-01-13T20:52:09.200Z,80.28
2023-01-13T20:54:40.421Z,80.65
2023-01-13T20:57:09.700Z,80.98
2023-01-13T20:59:37.168Z,81.42
2023-01-13T21:02:04.695Z,80.72
2023-01-13T21:04:31.379Z,81.51
2023-01-13T21:06:58.004Z,80.98
2023-01-13T21:09:24.788Z,81.75
2023-01-13T21:12:10.723Z,81.96
2023-01-13T21:14:56.326Z,82.20
2023-01-13T21:17:43.055Z,82.72
2023-01-13T21:20:11.408Z,82.22
2023-01-13T21:22:39.026Z,83.20
2023-01-13T21:25:06.046Z,83.24
2023-01-13T21:27:34.335Z,82.51
2023-01-13T21:30:01.491Z,83.27
2023-01-13T21:32:28.538Z,83.90
2023-01-13T21:34:55.465Z,83.70
2023-01-13T21:37:22.660Z,84.66
2023-01-13T21:39:49.586Z,83.81
2023-01-13T21:42:35.607Z,84.24
2023-01-13T21:45:20.876Z,84.06
2023-01-13T21:47:52.050Z,84.07
2023-01-13T21:50:20.383Z,83.83
2023-01-13T21:52:48.292Z,84.14
2023-01-13T21:55:28.852Z,84.17
2023-01-13T21:57:57.311Z,84.35
2023-01-13T22:00:25.840Z,83.84
2023-01-13T22:02:53.075Z,84.12
2023-01-13T22:05:21.770Z,83.43
2023-01-13T22:07:49.057Z,83.81
2023-01-13T22:10:17.261Z,83.89
2023-01-13T22:12:44.720Z,83.02
2023-01-13T22:15:12.943Z,83.41
2023-01-13T22:17:41.337Z,84.00
2023-01-13T22:20:09.150Z,83.60
2023-01-13T22:22:37.007Z,83.84
2023-01-13T22:25:07.072Z,84.03
2023-01-13T22:27:39.344Z,83.40
2023-01-13T22:30:09.452Z,84.02
2023-01-13T22:32:37.920Z,83.99
2023-01-13T22:35:05.939Z,83.47
2023-01-13T22:37:33.289Z,83.33
2023-01-13T22:40:01.343Z,83.17
2023-01-13T22:42:27.884Z,83.97
2023-01-13T22:44:54.934Z,83.58
2023-01-13T22:47:21.925Z,83.92
2023-01-13T22:49:49.516Z,83.45
2023-01-13T22:52:17.306Z,84.08
2023-01-13T22:54:44.355Z,84.06
2023-01-13T22:57:11.147Z,83.82
2023-01-13T22:59:38.225Z,83.63
2023-01-13T23:02:05.648Z,84.24
2023-01-13T23:04:32.767Z,83.60
2023-01-13T23:07:00.302Z,83.02
2023-01-13T23:09:29.903Z,83.17
2023-01-13T23:11:57.741Z,83.21
2023-01-13T23:14:24.805Z,83.05
2023-01-13T23:16:53.069Z,83.32
2023-01-13T23:19:20.499Z,82.55
2023-01-13T23:21:47.451Z,82.44
2023-01-13T23:24:14.513Z,82.39
2023-01-13T23:26:41.386Z,82.89
2023-01-13T23:29:10.956Z,83.00
2023-01-13T23:31:37.955Z,83.55
2023-01-13T23:34:04.861Z,84.14
2023-01-13T23:36:31.579Z,83.65
2023-01-13T23:38:59.350Z,83.63
2023-01-13T23:41:26.834Z,84.08
2023-01-13T23:43:58.508Z,84.04
2023-01-13T23:46:25.926Z,84.45
2023-01-13T23:48:55.068Z,84.21
2023-01-13T23:51:22.610Z,84.84
2023-01-13T23:53:50.635Z,84.00
2023-01-13T23:56:19.128Z,83.56
2023-01-13T23:58:46.308Z,84.33
